Terminal Aerodrome Forecast
Issued by NWS Atlanta, GA

Home | Current Version | Previous Version | Text Only | Print | Product List | Glossary On
Versions: 1 2 3 4 5 6 7 8 9 10 11 12 13 14
900
FTUS42 KFFC 192324
TAFMCN
TAF
KMCN 192324Z 2000/2024 34003KT P6SM FEW040
     FM200900 00000KT 5SM BR FEW030
     FM201300 29004KT P6SM SCT040
     FM201800 33005KT P6SM VCSH SCT050=

USA.gov is the U.S. government's official web portal to all federal, state and local government web resources and services.